createdAt,value
2022-10-06T00:04:53.038Z,13.60
2022-10-06T00:09:55.800Z,15.50
2022-10-06T00:14:58.735Z,15.80
2022-10-06T00:20:01.500Z,14.10
2022-10-06T00:25:05.525Z,13.70
2022-10-06T00:30:15.061Z,13.00
2022-10-06T00:35:18.405Z,13.20
2022-10-06T00:40:22.194Z,15.30
2022-10-06T00:45:40.119Z,16.60
2022-10-06T00:50:43.169Z,11.30
2022-10-06T00:55:45.892Z,15.40
2022-10-06T01:00:54.187Z,15.20
2022-10-06T01:05:58.433Z,13.20
2022-10-06T01:11:01.262Z,14.40
2022-10-06T01:16:23.337Z,15.60
2022-10-06T01:21:34.484Z,15.30
2022-10-06T01:26:41.016Z,13.30
2022-10-06T01:31:44.033Z,13.90
2022-10-06T01:36:46.850Z,16.90
2022-10-06T01:41:50.112Z,13.30
2022-10-06T01:46:53.060Z,13.70
2022-10-06T01:51:55.806Z,11.50
2022-10-06T01:56:58.816Z,14.60
2022-10-06T02:02:01.858Z,13.40
2022-10-06T02:07:05.615Z,13.30
2022-10-06T02:12:08.352Z,13.30
2022-10-06T02:17:11.140Z,12.90
2022-10-06T02:22:13.843Z,15.90
2022-10-06T02:27:17.199Z,15.70
2022-10-06T02:32:20.046Z,14.70
2022-10-06T02:37:22.761Z,14.50
2022-10-06T02:42:25.523Z,13.20
2022-10-06T02:47:28.363Z,13.60
2022-10-06T02:52:36.203Z,15.90
2022-10-06T02:57:39.675Z,15.50
2022-10-06T03:02:42.557Z,14.30
2022-10-06T03:07:45.562Z,13.30
2022-10-06T03:12:48.594Z,17.00
2022-10-06T03:17:52.522Z,13.20
2022-10-06T03:22:55.263Z,16.00
2022-10-06T03:27:57.997Z,11.90
2022-10-06T03:33:01.980Z,13.40
2022-10-06T03:38:04.734Z,13.70
2022-10-06T03:43:09.803Z,14.40
2022-10-06T03:48:12.585Z,14.20
2022-10-06T03:53:15.283Z,11.00
2022-10-06T03:58:19.396Z,13.00
2022-10-06T04:03:22.655Z,10.50
2022-10-06T04:08:26.252Z,13.40
2022-10-06T04:13:29.327Z,12.10
2022-10-06T04:18:32.480Z,12.30
2022-10-06T04:23:36.693Z,12.10
2022-10-06T04:28:41.036Z,11.30
2022-10-06T04:33:45.835Z,10.20
2022-10-06T04:38:55.450Z,13.70
2022-10-06T04:43:58.550Z,13.70
2022-10-06T04:49:01.750Z,10.70
2022-10-06T04:54:04.804Z,13.40
2022-10-06T04:59:07.826Z,16.80
2022-10-06T05:04:10.662Z,13.70
2022-10-06T05:09:15.939Z,10.40
2022-10-06T05:14:20.999Z,15.50
2022-10-06T05:19:23.802Z,13.40
2022-10-06T05:24:26.597Z,11.60
2022-10-06T05:29:29.516Z,17.00
2022-10-06T05:34:32.372Z,12.10
2022-10-06T05:39:35.170Z,10.80
2022-10-06T05:44:37.891Z,9.70
2022-10-06T05:49:40.821Z,12.20
2022-10-06T05:54:45.866Z,12.90
2022-10-06T05:59:48.685Z,11.70
2022-10-06T06:04:53.452Z,11.00
2022-10-06T06:09:56.323Z,12.80
2022-10-06T06:15:17.831Z,11.70
2022-10-06T06:20:20.620Z,10.40
2022-10-06T06:25:23.423Z,10.30
2022-10-06T06:30:29.326Z,13.30
2022-10-06T06:35:32.071Z,9.60
2022-10-06T06:40:34.977Z,9.80
2022-10-06T06:45:37.831Z,8.40
2022-10-06T06:50:41.300Z,10.10
2022-10-06T06:55:51.234Z,9.60
2022-10-06T07:00:54.487Z,10.40
2022-10-06T07:06:09.760Z,9.30
2022-10-06T07:11:26.956Z,11.40
2022-10-06T07:16:49.703Z,16.10
2022-10-06T07:22:42.510Z,21.30
2022-10-06T07:27:51.246Z,20.40
2022-10-06T07:32:55.401Z,24.80
2022-10-06T07:38:03.176Z,18.40
2022-10-06T07:43:06.015Z,12.10
2022-10-06T07:48:15.475Z,16.50
2022-10-06T07:53:19.264Z,14.60
2022-10-06T07:58:25.891Z,10.70
2022-10-06T08:03:28.926Z,10.50
2022-10-06T08:08:37.129Z,8.70
2022-10-06T08:13:43.142Z,10.20
2022-10-06T08:23:55.021Z,11.70
2022-10-06T08:29:00.545Z,8.60
2022-10-06T08:34:03.328Z,9.70
2022-10-06T08:39:21.060Z,12.90
2022-10-06T08:44:41.546Z,9.40
2022-10-06T08:55:13.107Z,4.20
2022-10-06T09:00:21.198Z,7.40
2022-10-06T09:05:28.416Z,6.70
2022-10-06T09:10:49.260Z,6.60
2022-10-06T09:16:16.963Z,5.60
2022-10-06T09:21:30.384Z,7.20
2022-10-06T09:26:34.432Z,7.00
2022-10-06T09:31:39.921Z,4.50
2022-10-06T09:37:03.427Z,6.50
2022-10-06T09:42:17.797Z,4.30
2022-10-06T09:47:40.071Z,5.00
2022-10-06T09:52:58.337Z,3.40
2022-10-06T09:58:02.042Z,5.80
2022-10-06T10:03:12.405Z,6.30
2022-10-06T10:08:29.708Z,8.60
2022-10-06T10:13:52.491Z,3.40
2022-10-06T10:18:56.204Z,5.10
2022-10-06T10:24:01.404Z,5.10
2022-10-06T10:29:22.844Z,3.50
2022-10-06T10:34:47.568Z,3.60
2022-10-06T10:39:58.072Z,4.60
2022-10-06T10:45:05.518Z,2.60
2022-10-06T10:50:29.100Z,3.30
2022-10-06T10:55:41.364Z,3.60
2022-10-06T11:00:50.137Z,3.30
2022-10-06T11:06:16.573Z,4.70
2022-10-06T11:11:34.891Z,5.80
2022-10-06T11:16:41.037Z,3.60
2022-10-06T11:22:26.481Z,6.00
2022-10-06T11:27:35.012Z,5.10
2022-10-06T11:32:43.956Z,3.30
2022-10-06T11:37:53.822Z,3.90
2022-10-06T11:43:36.025Z,3.60
2022-10-06T11:48:42.402Z,4.50
2022-10-06T11:58:55.866Z,5.80
2022-10-06T12:04:20.715Z,4.60
2022-10-06T12:09:50.995Z,3.50
2022-10-06T12:17:09.479Z,4.40
2022-10-06T12:21:06.487Z,3.60
2022-10-06T12:26:16.335Z,3.70
2022-10-06T12:31:37.915Z,3.60
2022-10-06T12:36:44.829Z,4.20
2022-10-06T12:42:02.679Z,4.20
2022-10-06T12:47:15.157Z,3.70
2022-10-06T12:52:21.456Z,2.70
2022-10-06T12:57:28.665Z,3.20
2022-10-06T13:02:31.856Z,6.70
2022-10-06T13:07:54.686Z,3.60
2022-10-06T13:12:58.344Z,3.10
2022-10-06T13:18:13.109Z,3.90
2022-10-06T13:23:34.984Z,7.70
2022-10-06T13:28:43.924Z,3.10
2022-10-06T13:34:16.878Z,3.80
2022-10-06T13:39:25.587Z,6.30
2022-10-06T13:44:40.012Z,4.60
2022-10-06T13:49:56.423Z,4.60
2022-10-06T13:55:03.603Z,2.70
2022-10-06T14:00:30.364Z,2.10
2022-10-06T14:05:40.339Z,3.90
2022-10-06T14:10:54.927Z,5.20
2022-10-06T14:16:02.037Z,5.00
2022-10-06T14:21:19.074Z,4.00
2022-10-06T14:26:34.404Z,7.10
2022-10-06T14:31:37.729Z,4.90
2022-10-06T14:36:56.483Z,5.10
2022-10-06T14:42:01.917Z,7.20
2022-10-06T14:47:06.557Z,6.40
2022-10-06T14:52:10.636Z,7.40
2022-10-06T14:57:13.424Z,5.50
2022-10-06T15:02:20.154Z,3.40
2022-10-06T15:07:41.802Z,5.20
2022-10-06T15:12:44.830Z,7.30
2022-10-06T15:17:47.825Z,6.20
2022-10-06T15:22:50.541Z,4.50
2022-10-06T15:28:11.772Z,5.70
2022-10-06T15:33:14.502Z,4.00
2022-10-06T15:38:17.487Z,3.80
2022-10-06T15:43:40.801Z,3.70
2022-10-06T15:48:44.575Z,6.80
2022-10-06T15:53:47.320Z,8.70
2022-10-06T15:58:50.011Z,8.00
2022-10-06T16:03:53.650Z,7.80
2022-10-06T16:08:56.434Z,8.30
2022-10-06T16:13:59.290Z,7.90
2022-10-06T16:19:02.603Z,7.00
2022-10-06T16:24:05.680Z,6.80
2022-10-06T16:29:08.473Z,5.50
2022-10-06T16:34:12.210Z,5.00
2022-10-06T16:39:20.995Z,6.70
2022-10-06T16:44:23.799Z,8.20
2022-10-06T16:49:28.279Z,6.20
2022-10-06T16:54:31.042Z,6.00
2022-10-06T16:59:33.770Z,7.80
2022-10-06T17:04:38.897Z,8.30
2022-10-06T17:10:01.594Z,29.40
2022-10-06T17:15:04.527Z,73.10
2022-10-06T17:20:07.993Z,42.50
2022-10-06T17:25:11.652Z,31.30
2022-10-06T17:30:15.581Z,26.00
2022-10-06T17:35:20.228Z,15.10
2022-10-06T17:40:23.175Z,13.20
2022-10-06T17:45:27.025Z,15.30
2022-10-06T17:50:29.822Z,21.30
2022-10-06T17:55:36.180Z,23.90
2022-10-06T18:00:38.941Z,27.50
2022-10-06T18:05:41.687Z,14.70
2022-10-06T18:11:06.637Z,15.80
2022-10-06T18:16:18.266Z,57.30
2022-10-06T18:21:24.387Z,54.80
2022-10-06T18:26:27.568Z,66.60
2022-10-06T18:31:30.440Z,63.70
2022-10-06T18:36:33.689Z,39.60
2022-10-06T18:41:38.017Z,39.90
2022-10-06T18:46:59.401Z,49.20
2022-10-06T18:52:02.116Z,61.70
2022-10-06T18:57:04.798Z,53.10
2022-10-06T19:02:07.641Z,57.80
2022-10-06T19:07:10.633Z,65.30
2022-10-06T19:12:13.772Z,30.20
2022-10-06T19:17:16.832Z,17.40
2022-10-06T19:22:24.828Z,13.80
2022-10-06T19:27:31.826Z,11.30
2022-10-06T19:32:34.735Z,13.70
2022-10-06T19:37:38.395Z,9.60
2022-10-06T19:42:51.155Z,10.40
2022-10-06T19:47:55.451Z,12.00
2022-10-06T19:52:58.346Z,10.20
2022-10-06T19:58:01.130Z,10.00
2022-10-06T20:03:07.537Z,8.60
2022-10-06T20:08:10.489Z,12.90
2022-10-06T20:13:13.330Z,8.00
2022-10-06T20:18:16.076Z,10.40
2022-10-06T20:23:18.865Z,13.80
2022-10-06T20:28:21.752Z,14.00
2022-10-06T20:33:24.563Z,7.90
2022-10-06T20:38:47.271Z,9.00
2022-10-06T20:43:53.912Z,10.30
2022-10-06T20:49:02.752Z,11.40
2022-10-06T20:54:06.966Z,8.90
2022-10-06T20:59:12.850Z,8.80
2022-10-06T21:04:15.586Z,9.20
2022-10-06T21:09:19.606Z,10.90
2022-10-06T21:14:23.935Z,11.30
2022-10-06T21:19:27.411Z,9.20
2022-10-06T21:24:30.208Z,10.00
2022-10-06T21:29:33.076Z,12.10
2022-10-06T21:34:35.866Z,13.30
2022-10-06T21:39:38.643Z,11.20
2022-10-06T21:44:41.431Z,11.30
2022-10-06T21:49:44.330Z,8.80
2022-10-06T21:54:47.172Z,8.10
2022-10-06T21:59:49.921Z,8.00
2022-10-06T22:04:52.694Z,12.00
2022-10-06T22:09:55.476Z,12.20
2022-10-06T22:14:59.404Z,7.10
2022-10-06T22:20:02.303Z,9.00
2022-10-06T22:25:05.288Z,13.50
2022-10-06T22:30:08.891Z,10.60
2022-10-06T22:35:11.788Z,10.30
2022-10-06T22:40:14.688Z,14.20
2022-10-06T22:45:17.479Z,10.90
2022-10-06T22:50:20.290Z,11.90
2022-10-06T22:55:23.654Z,11.80
2022-10-06T23:00:28.067Z,8.70
2022-10-06T23:05:31.792Z,12.20
2022-10-06T23:10:35.897Z,13.40
2022-10-06T23:15:38.639Z,11.70
2022-10-06T23:20:41.427Z,9.50
2022-10-06T23:25:45.753Z,10.00
2022-10-06T23:30:48.531Z,11.00
2022-10-06T23:36:03.051Z,9.80
2022-10-06T23:41:07.146Z,8.10
2022-10-06T23:46:10.003Z,10.10
2022-10-06T23:51:17.168Z,10.20
2022-10-06T23:56:20.986Z,10.70
